sensor_id;sensor_type;location;lat;lon;timestamp;pressure;altitude;pressure_sealevel;temperature;humidity
41684;BME280;27369;52.030;4.586;2023-07-31T00:02:11;107874.63;;;-144.41;100.00
41684;BME280;27369;52.030;4.586;2023-07-31T00:04:37;107874.63;;;-144.41;100.00
41684;BME280;27369;52.030;4.586;2023-07-31T00:07:02;107874.63;;;-144.41;100.00
41684;BME280;27369;52.030;4.586;2023-07-31T00:09:29;107874.63;;;-144.41;100.00
41684;BME280;27369;52.030;4.586;2023-07-31T00:11:54;108388.56;;;-144.41;100.00
41684;BME280;27369;52.030;4.586;2023-07-31T00:14:19;108645.53;;;-144.41;100.00
41684;BME280;27369;52.030;4.586;2023-07-31T00:16:45;108647.53;;;-144.41;100.00
41684;BME280;27369;52.030;4.586;2023-07-31T00:19:10;108647.53;;;-144.41;100.00
41684;BME280;27369;52.030;4.586;2023-07-31T00:21:35;108647.53;;;-144.41;100.00
41684;BME280;27369;52.030;4.586;2023-07-31T00:24:01;108647.53;;;-144.41;100.00
41684;BME280;27369;52.030;4.586;2023-07-31T00:26:26;108647.53;;;-144.41;100.00
41684;BME280;27369;52.030;4.586;2023-07-31T00:28:51;108647.53;;;-144.41;100.00
41684;BME280;27369;52.030;4.586;2023-07-31T00:31:16;108647.53;;;-144.41;100.00
41684;BME280;27369;52.030;4.586;2023-07-31T00:33:42;108647.53;;;-144.41;100.00
41684;BME280;27369;52.030;4.586;2023-07-31T00:36:07;108647.53;;;-144.41;100.00
41684;BME280;27369;52.030;4.586;2023-07-31T00:38:32;108647.53;;;-144.41;100.00
41684;BME280;27369;52.030;4.586;2023-07-31T00:40:58;108647.53;;;-144.41;100.00
41684;BME280;27369;52.030;4.586;2023-07-31T00:43:24;108647.53;;;-144.41;100.00
41684;BME280;27369;52.030;4.586;2023-07-31T00:45:49;108647.53;;;-144.41;100.00
41684;BME280;27369;52.030;4.586;2023-07-31T00:48:15;108647.53;;;-144.41;100.00
41684;BME280;27369;52.030;4.586;2023-07-31T00:50:40;108647.53;;;-144.41;100.00
41684;BME280;27369;52.030;4.586;2023-07-31T00:53:06;108647.53;;;-144.41;100.00
41684;BME280;27369;52.030;4.586;2023-07-31T00:55:31;108647.53;;;-144.41;100.00
41684;BME280;27369;52.030;4.586;2023-07-31T00:57:56;108647.53;;;-144.41;100.00
41684;BME280;27369;52.030;4.586;2023-07-31T01:00:22;108647.53;;;-144.41;100.00
41684;BME280;27369;52.030;4.586;2023-07-31T01:02:48;108647.53;;;-144.41;100.00
41684;BME280;27369;52.030;4.586;2023-07-31T01:05:14;108647.53;;;-144.41;100.00
41684;BME280;27369;52.030;4.586;2023-07-31T01:10:10;108647.53;;;-144.41;100.00
41684;BME280;27369;52.030;4.586;2023-07-31T01:12:36;108647.53;;;-144.41;100.00
41684;BME280;27369;52.030;4.586;2023-07-31T01:15:06;108647.53;;;-144.41;100.00
41684;BME280;27369;52.030;4.586;2023-07-31T01:17:35;108647.53;;;-144.41;100.00
41684;BME280;27369;52.030;4.586;2023-07-31T01:20:01;108647.53;;;-144.41;100.00
41684;BME280;27369;52.030;4.586;2023-07-31T01:27:31;108647.53;;;-144.41;100.00
41684;BME280;27369;52.030;4.586;2023-07-31T01:30:08;108647.53;;;-144.41;100.00
41684;BME280;27369;52.030;4.586;2023-07-31T01:32:39;108647.53;;;-144.41;100.00
41684;BME280;27369;52.030;4.586;2023-07-31T01:35:05;108647.53;;;-144.41;100.00
41684;BME280;27369;52.030;4.586;2023-07-31T01:37:31;108647.53;;;-144.41;100.00
41684;BME280;27369;52.030;4.586;2023-07-31T01:39:56;108647.53;;;-144.41;100.00
41684;BME280;27369;52.030;4.586;2023-07-31T01:42:22;108647.53;;;-144.41;100.00
41684;BME280;27369;52.030;4.586;2023-07-31T01:44:47;108647.53;;;-144.41;100.00
41684;BME280;27369;52.030;4.586;2023-07-31T01:47:12;108647.53;;;-144.41;100.00
41684;BME280;27369;52.030;4.586;2023-07-31T01:49:37;108647.53;;;-144.41;100.00
41684;BME280;27369;52.030;4.586;2023-07-31T01:52:03;108647.53;;;-144.41;100.00
41684;BME280;27369;52.030;4.586;2023-07-31T01:54:28;108647.53;;;-144.41;100.00
41684;BME280;27369;52.030;4.586;2023-07-31T01:56:53;108647.53;;;-144.41;100.00
41684;BME280;27369;52.030;4.586;2023-07-31T01:59:19;108647.53;;;-144.41;100.00
41684;BME280;27369;52.030;4.586;2023-07-31T02:01:44;108647.53;;;-144.41;100.00
41684;BME280;27369;52.030;4.586;2023-07-31T02:04:09;108647.53;;;-144.41;100.00
41684;BME280;27369;52.030;4.586;2023-07-31T02:06:35;108647.53;;;-144.41;100.00
41684;BME280;27369;52.030;4.586;2023-07-31T02:09:00;108647.53;;;-144.41;100.00
41684;BME280;27369;52.030;4.586;2023-07-31T02:11:25;108647.53;;;-144.41;100.00
41684;BME280;27369;52.030;4.586;2023-07-31T02:13:51;108647.53;;;-144.41;100.00
41684;BME280;27369;52.030;4.586;2023-07-31T02:16:16;108647.53;;;-144.41;100.00
41684;BME280;27369;52.030;4.586;2023-07-31T02:18:41;108647.53;;;-144.41;100.00
41684;BME280;27369;52.030;4.586;2023-07-31T02:21:06;108647.53;;;-144.41;100.00
41684;BME280;27369;52.030;4.586;2023-07-31T02:23:32;108647.53;;;-144.41;100.00
41684;BME280;27369;52.030;4.586;2023-07-31T02:25:57;108647.53;;;-144.41;100.00
41684;BME280;27369;52.030;4.586;2023-07-31T02:28:22;108647.53;;;-144.41;100.00
41684;BME280;27369;52.030;4.586;2023-07-31T02:30:48;108647.53;;;-144.41;100.00
41684;BME280;27369;52.030;4.586;2023-07-31T02:33:15;108647.53;;;-144.41;100.00
41684;BME280;27369;52.030;4.586;2023-07-31T02:35:41;108647.53;;;-144.41;100.00
41684;BME280;27369;52.030;4.586;2023-07-31T02:38:06;108647.53;;;-144.41;100.00
41684;BME280;27369;52.030;4.586;2023-07-31T02:40:32;108647.53;;;-144.41;100.00
41684;BME280;27369;52.030;4.586;2023-07-31T02:42:57;108647.53;;;-144.41;100.00
41684;BME280;27369;52.030;4.586;2023-07-31T02:45:22;108647.53;;;-144.41;100.00
41684;BME280;27369;52.030;4.586;2023-07-31T02:47:47;108647.53;;;-144.41;100.00
41684;BME280;27369;52.030;4.586;2023-07-31T02:50:13;108647.53;;;-144.41;100.00
41684;BME280;27369;52.030;4.586;2023-07-31T02:52:38;108647.53;;;-144.41;100.00
41684;BME280;27369;52.030;4.586;2023-07-31T02:55:03;108647.53;;;-144.41;100.00
41684;BME280;27369;52.030;4.586;2023-07-31T02:57:29;108647.53;;;-144.41;100.00
41684;BME280;27369;52.030;4.586;2023-07-31T02:59:54;108647.53;;;-144.41;100.00
41684;BME280;27369;52.030;4.586;2023-07-31T03:02:19;108647.53;;;-144.41;100.00
41684;BME280;27369;52.030;4.586;2023-07-31T03:04:45;108647.53;;;-144.41;100.00
41684;BME280;27369;52.030;4.586;2023-07-31T03:07:10;108647.53;;;-144.41;100.00
41684;BME280;27369;52.030;4.586;2023-07-31T03:09:35;108647.53;;;-144.41;100.00
41684;BME280;27369;52.030;4.586;2023-07-31T03:12:00;108647.53;;;-144.41;100.00
41684;BME280;27369;52.030;4.586;2023-07-31T03:14:26;108647.53;;;-144.41;100.00
41684;BME280;27369;52.030;4.586;2023-07-31T03:16:51;108647.53;;;-144.41;100.00
41684;BME280;27369;52.030;4.586;2023-07-31T03:19:17;108647.53;;;-144.41;100.00
41684;BME280;27369;52.030;4.586;2023-07-31T03:21:42;108647.53;;;-144.41;100.00
41684;BME280;27369;52.030;4.586;2023-07-31T03:24:07;108647.53;;;-144.41;100.00
41684;BME280;27369;52.030;4.586;2023-07-31T03:26:33;108647.53;;;-144.41;100.00
41684;BME280;27369;52.030;4.586;2023-07-31T03:28:58;108647.53;;;-144.41;100.00
41684;BME280;27369;52.030;4.586;2023-07-31T03:31:23;108647.53;;;-144.41;100.00
41684;BME280;27369;52.030;4.586;2023-07-31T03:33:48;108647.53;;;-144.41;100.00
41684;BME280;27369;52.030;4.586;2023-07-31T03:36:14;108647.53;;;-144.41;100.00
41684;BME280;27369;52.030;4.586;2023-07-31T03:38:39;108647.53;;;-144.41;100.00
41684;BME280;27369;52.030;4.586;2023-07-31T03:41:04;108647.53;;;-144.41;100.00
41684;BME280;27369;52.030;4.586;2023-07-31T03:43:31;108647.53;;;-144.41;100.00
41684;BME280;27369;52.030;4.586;2023-07-31T03:45:58;108647.53;;;-144.41;100.00
41684;BME280;27369;52.030;4.586;2023-07-31T03:48:23;108647.53;;;-144.41;100.00
41684;BME280;27369;52.030;4.586;2023-07-31T03:50:48;108647.53;;;-144.41;100.00
41684;BME280;27369;52.030;4.586;2023-07-31T03:53:13;108647.53;;;-144.41;100.00
41684;BME280;27369;52.030;4.586;2023-07-31T03:55:39;108647.53;;;-144.41;100.00
41684;BME280;27369;52.030;4.586;2023-07-31T03:58:05;108647.53;;;-144.41;100.00
41684;BME280;27369;52.030;4.586;2023-07-31T04:00:30;108647.53;;;-144.41;100.00
41684;BME280;27369;52.030;4.586;2023-07-31T04:02:55;108647.53;;;-144.41;100.00
41684;BME280;27369;52.030;4.586;2023-07-31T04:05:21;108647.53;;;-144.41;100.00
41684;BME280;27369;52.030;4.586;2023-07-31T04:07:46;108647.53;;;-144.41;100.00
41684;BME280;27369;52.030;4.586;2023-07-31T04:10:11;108647.53;;;-144.41;100.00
41684;BME280;27369;52.030;4.586;2023-07-31T04:12:36;108647.53;;;-144.41;100.00
41684;BME280;27369;52.030;4.586;2023-07-31T04:15:02;108647.53;;;-144.41;100.00
41684;BME280;27369;52.030;4.586;2023-07-31T04:17:27;108647.53;;;-144.41;100.00
41684;BME280;27369;52.030;4.586;2023-07-31T04:19:52;108647.53;;;-144.41;100.00
41684;BME280;27369;52.030;4.586;2023-07-31T04:22:18;108647.53;;;-144.41;100.00
41684;BME280;27369;52.030;4.586;2023-07-31T04:24:43;108647.53;;;-144.41;100.00
41684;BME280;27369;52.030;4.586;2023-07-31T04:27:08;108647.53;;;-144.41;100.00
41684;BME280;27369;52.030;4.586;2023-07-31T04:29:34;108647.53;;;-144.41;100.00
41684;BME280;27369;52.030;4.586;2023-07-31T04:31:59;108647.53;;;-144.41;100.00
41684;BME280;27369;52.030;4.586;2023-07-31T04:34:24;108647.53;;;-144.41;100.00
41684;BME280;27369;52.030;4.586;2023-07-31T04:36:50;108647.53;;;-144.41;100.00
41684;BME280;27369;52.030;4.586;2023-07-31T04:39:15;108647.53;;;-144.41;100.00
41684;BME280;27369;52.030;4.586;2023-07-31T04:41:40;108647.53;;;-144.41;100.00
41684;BME280;27369;52.030;4.586;2023-07-31T04:44:05;108647.53;;;-144.41;100.00
41684;BME280;27369;52.030;4.586;2023-07-31T04:46:31;108647.53;;;-144.41;100.00
41684;BME280;27369;52.030;4.586;2023-07-31T04:48:56;108647.53;;;-144.41;100.00
41684;BME280;27369;52.030;4.586;2023-07-31T04:51:22;108647.53;;;-144.41;100.00
41684;BME280;27369;52.030;4.586;2023-07-31T04:53:48;108647.53;;;-144.41;100.00
41684;BME280;27369;52.030;4.586;2023-07-31T04:56:13;108647.53;;;-144.41;100.00
41684;BME280;27369;52.030;4.586;2023-07-31T04:58:40;108647.53;;;-144.41;100.00
41684;BME280;27369;52.030;4.586;2023-07-31T05:01:05;108647.53;;;-144.41;100.00
41684;BME280;27369;52.030;4.586;2023-07-31T05:03:31;108647.53;;;-144.41;100.00
41684;BME280;27369;52.030;4.586;2023-07-31T05:05:56;108647.53;;;-144.41;100.00
41684;BME280;27369;52.030;4.586;2023-07-31T05:08:21;108647.53;;;-144.41;100.00
41684;BME280;27369;52.030;4.586;2023-07-31T05:10:46;108647.53;;;-144.41;100.00
41684;BME280;27369;52.030;4.586;2023-07-31T05:13:12;108647.53;;;-144.41;100.00
41684;BME280;27369;52.030;4.586;2023-07-31T05:15:37;108647.53;;;-144.41;100.00
41684;BME280;27369;52.030;4.586;2023-07-31T05:18:03;108647.53;;;-144.41;100.00
41684;BME280;27369;52.030;4.586;2023-07-31T05:20:28;108647.53;;;-144.41;100.00
41684;BME280;27369;52.030;4.586;2023-07-31T05:22:53;108647.53;;;-144.41;100.00
41684;BME280;27369;52.030;4.586;2023-07-31T05:25:19;108647.53;;;-144.41;100.00
41684;BME280;27369;52.030;4.586;2023-07-31T05:27:44;108647.53;;;-144.41;100.00
41684;BME280;27369;52.030;4.586;2023-07-31T05:30:10;108647.53;;;-144.41;100.00
41684;BME280;27369;52.030;4.586;2023-07-31T05:32:35;108647.53;;;-144.41;100.00
41684;BME280;27369;52.030;4.586;2023-07-31T05:35:00;108647.53;;;-144.41;100.00
41684;BME280;27369;52.030;4.586;2023-07-31T05:37:25;108647.53;;;-144.41;100.00
41684;BME280;27369;52.030;4.586;2023-07-31T05:39:51;108647.53;;;-144.41;100.00
41684;BME280;27369;52.030;4.586;2023-07-31T05:42:17;108647.53;;;-144.41;100.00
41684;BME280;27369;52.030;4.586;2023-07-31T05:44:42;108647.53;;;-144.41;100.00
41684;BME280;27369;52.030;4.586;2023-07-31T05:47:08;108647.53;;;-144.41;100.00
41684;BME280;27369;52.030;4.586;2023-07-31T05:49:33;108647.53;;;-144.41;100.00
41684;BME280;27369;52.030;4.586;2023-07-31T05:51:59;108647.53;;;-144.41;100.00
41684;BME280;27369;52.030;4.586;2023-07-31T05:54:24;108647.53;;;-144.41;100.00
41684;BME280;27369;52.030;4.586;2023-07-31T05:56:49;108647.53;;;-144.41;100.00
41684;BME280;27369;52.030;4.586;2023-07-31T05:59:15;108647.53;;;-144.41;100.00
41684;BME280;27369;52.030;4.586;2023-07-31T06:01:41;108647.53;;;-144.41;100.00
41684;BME280;27369;52.030;4.586;2023-07-31T06:04:06;108647.53;;;-144.41;100.00
41684;BME280;27369;52.030;4.586;2023-07-31T06:06:31;108647.53;;;-144.41;100.00
41684;BME280;27369;52.030;4.586;2023-07-31T06:08:57;108647.53;;;-144.41;100.00
41684;BME280;27369;52.030;4.586;2023-07-31T06:11:22;108647.53;;;-144.41;100.00
41684;BME280;27369;52.030;4.586;2023-07-31T06:13:48;108647.53;;;-144.41;100.00
41684;BME280;27369;52.030;4.586;2023-07-31T06:16:14;108647.53;;;-144.41;100.00
41684;BME280;27369;52.030;4.586;2023-07-31T06:18:40;108647.53;;;-144.41;100.00
41684;BME280;27369;52.030;4.586;2023-07-31T06:21:06;108647.53;;;-144.41;100.00
41684;BME280;27369;52.030;4.586;2023-07-31T06:23:31;108647.53;;;-144.41;100.00
41684;BME280;27369;52.030;4.586;2023-07-31T06:25:56;108647.53;;;-144.41;100.00
41684;BME280;27369;52.030;4.586;2023-07-31T06:28:26;108647.53;;;-144.41;100.00
41684;BME280;27369;52.030;4.586;2023-07-31T06:30:52;108647.53;;;-144.41;100.00
41684;BME280;27369;52.030;4.586;2023-07-31T06:33:17;108647.53;;;-144.41;100.00
41684;BME280;27369;52.030;4.586;2023-07-31T06:35:42;108647.53;;;-144.41;100.00
41684;BME280;27369;52.030;4.586;2023-07-31T06:38:07;108647.53;;;-144.41;100.00
41684;BME280;27369;52.030;4.586;2023-07-31T06:40:33;108647.53;;;-144.41;100.00
41684;BME280;27369;52.030;4.586;2023-07-31T06:42:58;108647.53;;;-144.41;100.00
41684;BME280;27369;52.030;4.586;2023-07-31T06:45:23;108647.53;;;-144.41;100.00
41684;BME280;27369;52.030;4.586;2023-07-31T06:47:49;108647.53;;;-144.41;100.00
41684;BME280;27369;52.030;4.586;2023-07-31T06:50:14;108647.53;;;-144.41;100.00
41684;BME280;27369;52.030;4.586;2023-07-31T06:52:39;108647.53;;;-144.41;100.00
41684;BME280;27369;52.030;4.586;2023-07-31T06:55:18;108647.53;;;-144.41;100.00
41684;BME280;27369;52.030;4.586;2023-07-31T06:57:44;108647.53;;;-144.41;100.00
41684;BME280;27369;52.030;4.586;2023-07-31T07:00:09;108647.53;;;-144.41;100.00
41684;BME280;27369;52.030;4.586;2023-07-31T07:02:34;108647.53;;;-144.41;100.00
41684;BME280;27369;52.030;4.586;2023-07-31T07:05:00;108647.53;;;-144.41;100.00
41684;BME280;27369;52.030;4.586;2023-07-31T07:07:25;108647.53;;;-144.41;100.00
41684;BME280;27369;52.030;4.586;2023-07-31T07:09:50;108647.53;;;-144.41;100.00
41684;BME280;27369;52.030;4.586;2023-07-31T07:12:15;108647.53;;;-144.41;100.00
41684;BME280;27369;52.030;4.586;2023-07-31T07:14:41;108647.53;;;-144.41;100.00
41684;BME280;27369;52.030;4.586;2023-07-31T07:17:06;108647.53;;;-144.41;100.00
41684;BME280;27369;52.030;4.586;2023-07-31T07:19:31;108647.53;;;-144.41;100.00
41684;BME280;27369;52.030;4.586;2023-07-31T07:21:57;108647.53;;;-144.41;100.00
41684;BME280;27369;52.030;4.586;2023-07-31T07:24:22;108647.53;;;-144.41;100.00
41684;BME280;27369;52.030;4.586;2023-07-31T07:26:47;108647.53;;;-144.41;100.00
41684;BME280;27369;52.030;4.586;2023-07-31T07:29:13;108647.53;;;-144.41;100.00
41684;BME280;27369;52.030;4.586;2023-07-31T07:31:38;108647.53;;;-144.41;100.00
41684;BME280;27369;52.030;4.586;2023-07-31T07:34:03;108647.53;;;-144.41;100.00
41684;BME280;27369;52.030;4.586;2023-07-31T07:36:28;108647.53;;;-144.41;100.00
41684;BME280;27369;52.030;4.586;2023-07-31T07:38:54;108647.53;;;-144.41;100.00
41684;BME280;27369;52.030;4.586;2023-07-31T07:41:19;108647.53;;;-144.41;100.00
41684;BME280;27369;52.030;4.586;2023-07-31T07:43:44;108647.53;;;-144.41;100.00
41684;BME280;27369;52.030;4.586;2023-07-31T07:46:10;108647.53;;;-144.41;100.00
41684;BME280;27369;52.030;4.586;2023-07-31T07:48:35;108647.53;;;-144.41;100.00
41684;BME280;27369;52.030;4.586;2023-07-31T07:51:00;108647.53;;;-144.41;100.00
41684;BME280;27369;52.030;4.586;2023-07-31T07:53:25;108647.53;;;-144.41;100.00
41684;BME280;27369;52.030;4.586;2023-07-31T07:55:51;108647.53;;;-144.41;100.00
41684;BME280;27369;52.030;4.586;2023-07-31T07:58:16;108647.53;;;-144.41;100.00
41684;BME280;27369;52.030;4.586;2023-07-31T08:00:41;108647.53;;;-144.41;100.00
41684;BME280;27369;52.030;4.586;2023-07-31T08:03:07;108647.53;;;-144.41;100.00
41684;BME280;27369;52.030;4.586;2023-07-31T08:05:32;108647.53;;;-144.41;100.00
41684;BME280;27369;52.030;4.586;2023-07-31T08:07:59;108647.53;;;-144.41;100.00
41684;BME280;27369;52.030;4.586;2023-07-31T08:10:24;108647.53;;;-144.41;100.00
41684;BME280;27369;52.030;4.586;2023-07-31T08:12:50;108647.53;;;-144.41;100.00
41684;BME280;27369;52.030;4.586;2023-07-31T08:15:15;108647.53;;;-144.41;100.00
41684;BME280;27369;52.030;4.586;2023-07-31T08:17:40;108647.53;;;-144.41;100.00
41684;BME280;27369;52.030;4.586;2023-07-31T08:20:06;108647.53;;;-144.41;100.00
41684;BME280;27369;52.030;4.586;2023-07-31T08:22:31;108647.53;;;-144.41;100.00
41684;BME280;27369;52.030;4.586;2023-07-31T08:24:56;108647.53;;;-144.41;100.00
41684;BME280;27369;52.030;4.586;2023-07-31T08:27:22;108647.53;;;-144.41;100.00
41684;BME280;27369;52.030;4.586;2023-07-31T08:29:47;108647.53;;;-144.41;100.00
41684;BME280;27369;52.030;4.586;2023-07-31T08:32:12;108647.53;;;-144.41;100.00
41684;BME280;27369;52.030;4.586;2023-07-31T08:34:38;108647.53;;;-144.41;100.00
41684;BME280;27369;52.030;4.586;2023-07-31T08:37:03;108647.53;;;-144.41;100.00
41684;BME280;27369;52.030;4.586;2023-07-31T08:39:28;108647.53;;;-144.41;100.00
41684;BME280;27369;52.030;4.586;2023-07-31T08:41:57;108647.53;;;-144.41;100.00
41684;BME280;27369;52.030;4.586;2023-07-31T08:44:23;108647.53;;;-144.41;100.00
41684;BME280;27369;52.030;4.586;2023-07-31T08:46:49;108647.53;;;-144.41;100.00
41684;BME280;27369;52.030;4.586;2023-07-31T08:49:15;108647.53;;;-144.41;100.00
41684;BME280;27369;52.030;4.586;2023-07-31T08:51:41;108647.53;;;-144.41;100.00
41684;BME280;27369;52.030;4.586;2023-07-31T08:54:07;108647.53;;;-144.41;100.00
41684;BME280;27369;52.030;4.586;2023-07-31T08:56:32;108647.53;;;-144.41;100.00
41684;BME280;27369;52.030;4.586;2023-07-31T08:58:59;108647.53;;;-144.41;100.00
41684;BME280;27369;52.030;4.586;2023-07-31T09:01:27;108647.53;;;-144.41;100.00
41684;BME280;27369;52.030;4.586;2023-07-31T09:03:54;108647.53;;;-144.41;100.00
41684;BME280;27369;52.030;4.586;2023-07-31T09:06:20;108647.53;;;-144.41;100.00
41684;BME280;27369;52.030;4.586;2023-07-31T09:08:49;108647.53;;;-144.41;100.00
41684;BME280;27369;52.030;4.586;2023-07-31T09:11:14;108647.53;;;-144.41;100.00
41684;BME280;27369;52.030;4.586;2023-07-31T09:13:40;108647.53;;;-144.41;100.00
41684;BME280;27369;52.030;4.586;2023-07-31T09:16:05;108647.53;;;-144.41;100.00
41684;BME280;27369;52.030;4.586;2023-07-31T09:18:30;108647.53;;;-144.41;100.00
41684;BME280;27369;52.030;4.586;2023-07-31T09:21:05;108647.53;;;-144.41;100.00
41684;BME280;27369;52.030;4.586;2023-07-31T09:23:40;108647.53;;;-144.41;100.00
41684;BME280;27369;52.030;4.586;2023-07-31T09:26:07;108647.53;;;-144.41;100.00
41684;BME280;27369;52.030;4.586;2023-07-31T09:28:32;108647.53;;;-144.41;100.00
41684;BME280;27369;52.030;4.586;2023-07-31T09:30:57;108647.53;;;-144.41;100.00
41684;BME280;27369;52.030;4.586;2023-07-31T09:33:22;108647.53;;;-144.41;100.00
41684;BME280;27369;52.030;4.586;2023-07-31T09:35:48;108647.53;;;-144.41;100.00
41684;BME280;27369;52.030;4.586;2023-07-31T09:38:13;108647.53;;;-144.41;100.00
41684;BME280;27369;52.030;4.586;2023-07-31T09:40:40;108647.53;;;-144.41;100.00
41684;BME280;27369;52.030;4.586;2023-07-31T09:43:07;108647.53;;;-144.41;100.00
41684;BME280;27369;52.030;4.586;2023-07-31T09:45:35;108647.53;;;-144.41;100.00
41684;BME280;27369;52.030;4.586;2023-07-31T09:48:01;108647.53;;;-144.41;100.00
41684;BME280;27369;52.030;4.586;2023-07-31T09:50:27;108647.53;;;-144.41;100.00
41684;BME280;27369;52.030;4.586;2023-07-31T09:52:54;108647.53;;;-144.41;100.00
41684;BME280;27369;52.030;4.586;2023-07-31T09:55:19;108647.53;;;-144.41;100.00
41684;BME280;27369;52.030;4.586;2023-07-31T09:57:45;108647.53;;;-144.41;100.00
41684;BME280;27369;52.030;4.586;2023-07-31T10:00:11;108647.53;;;-144.41;100.00
41684;BME280;27369;52.030;4.586;2023-07-31T10:02:37;108647.53;;;-144.41;100.00
41684;BME280;27369;52.030;4.586;2023-07-31T10:05:04;108647.53;;;-144.41;100.00
41684;BME280;27369;52.030;4.586;2023-07-31T10:07:30;108647.53;;;-144.41;100.00
41684;BME280;27369;52.030;4.586;2023-07-31T10:09:59;108647.53;;;-144.41;100.00
41684;BME280;27369;52.030;4.586;2023-07-31T10:12:25;108647.53;;;-144.41;100.00
41684;BME280;27369;52.030;4.586;2023-07-31T10:14:54;108647.53;;;-144.41;100.00
41684;BME280;27369;52.030;4.586;2023-07-31T10:17:19;108647.53;;;-144.41;100.00
41684;BME280;27369;52.030;4.586;2023-07-31T10:19:46;108647.53;;;-144.41;100.00
41684;BME280;27369;52.030;4.586;2023-07-31T10:22:12;108647.53;;;-144.41;100.00
41684;BME280;27369;52.030;4.586;2023-07-31T10:24:38;108647.53;;;-144.41;100.00
41684;BME280;27369;52.030;4.586;2023-07-31T10:27:04;108647.53;;;-144.41;100.00
41684;BME280;27369;52.030;4.586;2023-07-31T10:29:29;108647.53;;;-144.41;100.00
41684;BME280;27369;52.030;4.586;2023-07-31T10:31:56;108647.53;;;-144.41;100.00
41684;BME280;27369;52.030;4.586;2023-07-31T10:34:22;108647.53;;;-144.41;100.00
41684;BME280;27369;52.030;4.586;2023-07-31T10:36:47;108647.53;;;-144.41;100.00
41684;BME280;27369;52.030;4.586;2023-07-31T10:41:58;108647.53;;;-144.41;100.00
41684;BME280;27369;52.030;4.586;2023-07-31T10:44:23;108647.53;;;-144.41;100.00
41684;BME280;27369;52.030;4.586;2023-07-31T10:46:48;108647.53;;;-144.41;100.00
41684;BME280;27369;52.030;4.586;2023-07-31T10:49:13;108647.53;;;-144.41;100.00
41684;BME280;27369;52.030;4.586;2023-07-31T10:51:46;108647.53;;;-144.41;100.00
41684;BME280;27369;52.030;4.586;2023-07-31T10:54:13;108647.53;;;-144.41;100.00
41684;BME280;27369;52.030;4.586;2023-07-31T10:56:39;108647.53;;;-144.41;100.00
41684;BME280;27369;52.030;4.586;2023-07-31T10:59:04;108647.53;;;-144.41;100.00
41684;BME280;27369;52.030;4.586;2023-07-31T11:02:04;108647.53;;;-144.41;100.00
41684;BME280;27369;52.030;4.586;2023-07-31T11:04:26;108647.53;;;-144.41;100.00
41684;BME280;27369;52.030;4.586;2023-07-31T11:06:55;108647.53;;;-144.41;100.00
41684;BME280;27369;52.030;4.586;2023-07-31T11:09:20;108647.53;;;-144.41;100.00
41684;BME280;27369;52.030;4.586;2023-07-31T11:11:46;108647.53;;;-144.41;100.00
41684;BME280;27369;52.030;4.586;2023-07-31T11:14:11;108647.53;;;-144.41;100.00
41684;BME280;27369;52.030;4.586;2023-07-31T11:16:36;108647.53;;;-144.41;100.00
41684;BME280;27369;52.030;4.586;2023-07-31T11:19:02;108647.53;;;-144.41;100.00
41684;BME280;27369;52.030;4.586;2023-07-31T11:21:27;108647.53;;;-144.41;100.00
41684;BME280;27369;52.030;4.586;2023-07-31T11:23:56;108647.53;;;-144.41;100.00
41684;BME280;27369;52.030;4.586;2023-07-31T11:26:22;108647.53;;;-144.41;100.00
41684;BME280;27369;52.030;4.586;2023-07-31T11:28:48;108647.53;;;-144.41;100.00
41684;BME280;27369;52.030;4.586;2023-07-31T11:31:14;108647.53;;;-144.41;100.00
41684;BME280;27369;52.030;4.586;2023-07-31T11:33:39;108647.53;;;-144.41;100.00
41684;BME280;27369;52.030;4.586;2023-07-31T11:36:04;108647.53;;;-144.41;100.00
41684;BME280;27369;52.030;4.586;2023-07-31T11:38:31;108647.53;;;-144.41;100.00
41684;BME280;27369;52.030;4.586;2023-07-31T11:40:57;108647.53;;;-144.41;100.00
41684;BME280;27369;52.030;4.586;2023-07-31T11:43:23;106076.38;;;-144.41;100.00
41684;BME280;27369;52.030;4.586;2023-07-31T11:45:50;105305.97;;;-144.41;100.00
41684;BME280;27369;52.030;4.586;2023-07-31T11:48:19;100942.94;;;-144.41;100.00
41684;BME280;27369;52.030;4.586;2023-07-31T11:50:45;100173.50;;;-144.41;100.00
41684;BME280;27369;52.030;4.586;2023-07-31T11:53:11;99660.59;;;-144.41;100.00
41684;BME280;27369;52.030;4.586;2023-07-31T11:55:37;98122.31;;;-144.41;100.00
41684;BME280;27369;52.030;4.586;2023-07-31T11:58:02;96840.88;;;-144.41;100.00
41684;BME280;27369;52.030;4.586;2023-07-31T12:00:28;96072.19;;;-144.41;100.00
41684;BME280;27369;52.030;4.586;2023-07-31T12:02:53;95303.66;;;-144.41;100.00
41684;BME280;27369;52.030;4.586;2023-07-31T12:05:19;94279.19;;;-144.41;100.00
41684;BME280;27369;52.030;4.586;2023-07-31T12:07:45;93767.03;;;-144.41;100.00
41684;BME280;27369;52.030;4.586;2023-07-31T12:10:11;90951.41;;;-144.41;100.00
41684;BME280;27369;52.030;4.586;2023-07-31T12:12:36;89160.69;;;-144.41;100.00
41684;BME280;27369;52.030;4.586;2023-07-31T12:15:01;88137.75;;;-144.41;100.00
41684;BME280;27369;52.030;4.586;2023-07-31T12:17:27;87115.09;;;-144.41;100.00
41684;BME280;27369;52.030;4.586;2023-07-31T12:19:52;86092.69;;;-144.41;100.00
41684;BME280;27369;52.030;4.586;2023-07-31T12:22:18;84048.66;;;-144.41;100.00
41684;BME280;27369;52.030;4.586;2023-07-31T12:24:46;80729.34;;;-144.41;100.00